Savant Lake, Canada
Current Conditions -  °F | °C
As of 7:00 AM on Thursday 30 Oct 2014 (Local Time) from CYXL Reporting Station
Light Snow Light Snow  
Wind Chill: 29°   Ceiling: 2700
Heat Index: 34°   Visibility: 15mi
Dew Point: 32°   Wind: 6mph
Humidity: 93%   Direction: 320°NW
Pressure: 30.03"   Gusts: NA
Location:  50.23°N, 90.72°W
Report Text: CYXL 301200Z 32005KT 15SM -SN SCT010 OVC027 01/00 A3003 RMK SF4SC4 SLP190
Loading
Personal Weather Stations






























Interactive Weather Map
Tropical Storm Tracking
New forecast layout! Learn more

10-Day Weather Forecast

Advertisements
Track Severe Weather on mobile